sensor_id;sensor_type;location;lat;lon;timestamp;temperature;humidity
38938;DHT22;24727;51.974;20.868;2023-08-07T00:01:10;14.40;11.10
38938;DHT22;24727;51.974;20.868;2023-08-07T00:03:36;14.40;12.20
38938;DHT22;24727;51.974;20.868;2023-08-07T00:06:08;14.40;8.90
38938;DHT22;24727;51.974;20.868;2023-08-07T00:08:34;14.40;9.20
38938;DHT22;24727;51.974;20.868;2023-08-07T00:11:06;14.40;6.60
38938;DHT22;24727;51.974;20.868;2023-08-07T00:13:32;14.40;5.10
38938;DHT22;24727;51.974;20.868;2023-08-07T00:15:59;14.40;2.20
38938;DHT22;24727;51.974;20.868;2023-08-07T00:18:24;14.40;1.10
38938;DHT22;24727;51.974;20.868;2023-08-07T00:20:50;14.40;1.00
38938;DHT22;24727;51.974;20.868;2023-08-07T00:23:16;14.50;1.00
38938;DHT22;24727;51.974;20.868;2023-08-07T00:25:43;14.50;1.00
38938;DHT22;24727;51.974;20.868;2023-08-07T00:28:10;14.50;1.00
38938;DHT22;24727;51.974;20.868;2023-08-07T00:30:37;14.50;1.00
38938;DHT22;24727;51.974;20.868;2023-08-07T00:33:03;14.50;1.00
38938;DHT22;24727;51.974;20.868;2023-08-07T00:35:28;14.50;1.00
38938;DHT22;24727;51.974;20.868;2023-08-07T00:37:54;14.40;1.00
38938;DHT22;24727;51.974;20.868;2023-08-07T00:40:20;14.40;1.00
38938;DHT22;24727;51.974;20.868;2023-08-07T00:42:47;14.40;1.00
38938;DHT22;24727;51.974;20.868;2023-08-07T00:45:13;14.40;1.00
38938;DHT22;24727;51.974;20.868;2023-08-07T00:47:39;14.40;4.60
38938;DHT22;24727;51.974;20.868;2023-08-07T00:50:07;14.30;5.40
38938;DHT22;24727;51.974;20.868;2023-08-07T00:52:33;14.30;8.30
38938;DHT22;24727;51.974;20.868;2023-08-07T00:55:00;14.20;7.60
38938;DHT22;24727;51.974;20.868;2023-08-07T00:57:27;14.20;9.70
38938;DHT22;24727;51.974;20.868;2023-08-07T00:59:53;14.30;10.60
38938;DHT22;24727;51.974;20.868;2023-08-07T01:02:20;14.30;11.40
38938;DHT22;24727;51.974;20.868;2023-08-07T01:04:48;14.20;8.80
38938;DHT22;24727;51.974;20.868;2023-08-07T01:07:17;14.30;8.20
38938;DHT22;24727;51.974;20.868;2023-08-07T01:09:43;14.20;10.40
38938;DHT22;24727;51.974;20.868;2023-08-07T01:12:16;14.20;10.60
38938;DHT22;24727;51.974;20.868;2023-08-07T01:14:52;14.20;7.00
38938;DHT22;24727;51.974;20.868;2023-08-07T01:17:22;14.20;5.30
38938;DHT22;24727;51.974;20.868;2023-08-07T01:19:55;14.20;3.20
38938;DHT22;24727;51.974;20.868;2023-08-07T01:22:24;14.30;5.30
38938;DHT22;24727;51.974;20.868;2023-08-07T01:24:51;14.20;3.80
38938;DHT22;24727;51.974;20.868;2023-08-07T01:30:06;14.20;5.10
38938;DHT22;24727;51.974;20.868;2023-08-07T01:35:06;14.20;10.40
38938;DHT22;24727;51.974;20.868;2023-08-07T01:37:36;14.10;10.50
38938;DHT22;24727;51.974;20.868;2023-08-07T01:40:05;14.10;11.20
38938;DHT22;24727;51.974;20.868;2023-08-07T01:42:33;14.10;10.90
38938;DHT22;24727;51.974;20.868;2023-08-07T01:45:00;14.10;7.40
38938;DHT22;24727;51.974;20.868;2023-08-07T01:47:26;14.10;8.50
38938;DHT22;24727;51.974;20.868;2023-08-07T01:49:52;14.10;9.10
38938;DHT22;24727;51.974;20.868;2023-08-07T01:52:19;14.10;10.70
38938;DHT22;24727;51.974;20.868;2023-08-07T01:54:45;14.00;8.80
38938;DHT22;24727;51.974;20.868;2023-08-07T01:57:12;14.00;8.30
38938;DHT22;24727;51.974;20.868;2023-08-07T01:59:38;14.00;7.30
38938;DHT22;24727;51.974;20.868;2023-08-07T02:02:04;14.00;8.00
38938;DHT22;24727;51.974;20.868;2023-08-07T02:04:30;14.00;8.80
38938;DHT22;24727;51.974;20.868;2023-08-07T02:06:56;14.00;7.80
38938;DHT22;24727;51.974;20.868;2023-08-07T02:09:22;14.00;7.30
38938;DHT22;24727;51.974;20.868;2023-08-07T02:11:48;14.10;8.40
38938;DHT22;24727;51.974;20.868;2023-08-07T02:14:14;14.00;9.00
38938;DHT22;24727;51.974;20.868;2023-08-07T02:16:42;14.00;7.10
38938;DHT22;24727;51.974;20.868;2023-08-07T02:19:08;14.10;8.60
38938;DHT22;24727;51.974;20.868;2023-08-07T02:21:34;14.10;6.10
38938;DHT22;24727;51.974;20.868;2023-08-07T02:24:06;14.00;9.60
38938;DHT22;24727;51.974;20.868;2023-08-07T02:26:32;14.00;6.70
38938;DHT22;24727;51.974;20.868;2023-08-07T02:28:58;14.00;7.70
38938;DHT22;24727;51.974;20.868;2023-08-07T02:31:24;14.00;8.10
38938;DHT22;24727;51.974;20.868;2023-08-07T02:33:51;14.00;9.30
38938;DHT22;24727;51.974;20.868;2023-08-07T02:36:17;13.90;13.10
38938;DHT22;24727;51.974;20.868;2023-08-07T02:38:44;13.90;15.90
38938;DHT22;24727;51.974;20.868;2023-08-07T02:41:12;13.90;14.40
38938;DHT22;24727;51.974;20.868;2023-08-07T02:43:38;13.70;4.50
38938;DHT22;24727;51.974;20.868;2023-08-07T02:46:04;13.70;3.50
38938;DHT22;24727;51.974;20.868;2023-08-07T02:48:30;13.80;4.70
38938;DHT22;24727;51.974;20.868;2023-08-07T02:50:56;13.80;3.50
38938;DHT22;24727;51.974;20.868;2023-08-07T02:53:23;13.80;1.00
38938;DHT22;24727;51.974;20.868;2023-08-07T02:55:49;13.80;1.00
38938;DHT22;24727;51.974;20.868;2023-08-07T02:58:17;13.80;1.00
38938;DHT22;24727;51.974;20.868;2023-08-07T03:00:44;13.80;1.00
38938;DHT22;24727;51.974;20.868;2023-08-07T03:03:10;13.80;1.00
38938;DHT22;24727;51.974;20.868;2023-08-07T03:05:36;13.90;1.00
38938;DHT22;24727;51.974;20.868;2023-08-07T03:08:03;13.90;1.00
38938;DHT22;24727;51.974;20.868;2023-08-07T03:10:29;13.90;1.00
38938;DHT22;24727;51.974;20.868;2023-08-07T03:12:55;13.90;1.00
38938;DHT22;24727;51.974;20.868;2023-08-07T03:15:21;13.90;1.00
38938;DHT22;24727;51.974;20.868;2023-08-07T03:17:47;13.90;1.00
38938;DHT22;24727;51.974;20.868;2023-08-07T03:20:15;13.90;1.00
38938;DHT22;24727;51.974;20.868;2023-08-07T03:22:41;13.90;1.00
38938;DHT22;24727;51.974;20.868;2023-08-07T03:25:07;13.90;1.00
38938;DHT22;24727;51.974;20.868;2023-08-07T03:27:33;13.90;1.00
38938;DHT22;24727;51.974;20.868;2023-08-07T03:29:59;13.90;1.00
38938;DHT22;24727;51.974;20.868;2023-08-07T03:32:25;13.90;1.00
38938;DHT22;24727;51.974;20.868;2023-08-07T03:34:51;14.00;1.00
38938;DHT22;24727;51.974;20.868;2023-08-07T03:37:17;14.00;1.00
38938;DHT22;24727;51.974;20.868;2023-08-07T03:39:44;14.00;1.00
38938;DHT22;24727;51.974;20.868;2023-08-07T03:42:13;14.00;1.00
38938;DHT22;24727;51.974;20.868;2023-08-07T03:44:41;14.00;1.00
38938;DHT22;24727;51.974;20.868;2023-08-07T03:47:06;14.00;1.00
38938;DHT22;24727;51.974;20.868;2023-08-07T03:49:32;14.00;1.00
38938;DHT22;24727;51.974;20.868;2023-08-07T03:51:58;14.00;1.00
38938;DHT22;24727;51.974;20.868;2023-08-07T03:54:25;14.00;1.00
38938;DHT22;24727;51.974;20.868;2023-08-07T03:56:51;14.00;1.00
38938;DHT22;24727;51.974;20.868;2023-08-07T03:59:17;14.10;1.00
38938;DHT22;24727;51.974;20.868;2023-08-07T04:01:44;14.00;1.00
38938;DHT22;24727;51.974;20.868;2023-08-07T04:04:09;14.10;1.00
38938;DHT22;24727;51.974;20.868;2023-08-07T04:06:35;14.10;1.00
38938;DHT22;24727;51.974;20.868;2023-08-07T04:09:01;14.00;1.00
38938;DHT22;24727;51.974;20.868;2023-08-07T04:11:29;14.00;1.00
38938;DHT22;24727;51.974;20.868;2023-08-07T04:13:55;14.10;1.00
38938;DHT22;24727;51.974;20.868;2023-08-07T04:16:21;14.00;1.00
38938;DHT22;24727;51.974;20.868;2023-08-07T04:18:47;14.00;1.00
38938;DHT22;24727;51.974;20.868;2023-08-07T04:21:13;14.00;1.00
38938;DHT22;24727;51.974;20.868;2023-08-07T04:23:39;14.10;1.00
38938;DHT22;24727;51.974;20.868;2023-08-07T04:26:05;14.10;1.00
38938;DHT22;24727;51.974;20.868;2023-08-07T04:28:36;14.10;1.00
38938;DHT22;24727;51.974;20.868;2023-08-07T04:31:03;14.10;1.00
38938;DHT22;24727;51.974;20.868;2023-08-07T04:33:29;14.10;1.00
38938;DHT22;24727;51.974;20.868;2023-08-07T04:35:55;14.10;1.00
38938;DHT22;24727;51.974;20.868;2023-08-07T04:38:22;14.10;1.00
38938;DHT22;24727;51.974;20.868;2023-08-07T04:40:49;14.10;1.00
38938;DHT22;24727;51.974;20.868;2023-08-07T04:43:16;14.20;1.00
38938;DHT22;24727;51.974;20.868;2023-08-07T04:45:43;14.20;1.00
38938;DHT22;24727;51.974;20.868;2023-08-07T04:48:11;14.20;1.00
38938;DHT22;24727;51.974;20.868;2023-08-07T04:50:37;14.20;1.00
38938;DHT22;24727;51.974;20.868;2023-08-07T04:53:07;14.20;1.00
38938;DHT22;24727;51.974;20.868;2023-08-07T04:55:34;14.20;1.00
38938;DHT22;24727;51.974;20.868;2023-08-07T04:58:02;14.20;1.00
38938;DHT22;24727;51.974;20.868;2023-08-07T05:00:28;14.20;1.00
38938;DHT22;24727;51.974;20.868;2023-08-07T05:02:54;14.20;1.00
38938;DHT22;24727;51.974;20.868;2023-08-07T05:05:22;14.20;1.00
38938;DHT22;24727;51.974;20.868;2023-08-07T05:07:49;14.10;1.00
38938;DHT22;24727;51.974;20.868;2023-08-07T05:10:15;14.10;1.00
38938;DHT22;24727;51.974;20.868;2023-08-07T05:12:41;14.10;1.00
38938;DHT22;24727;51.974;20.868;2023-08-07T05:15:13;14.10;1.00
38938;DHT22;24727;51.974;20.868;2023-08-07T05:17:40;14.10;1.00
38938;DHT22;24727;51.974;20.868;2023-08-07T05:20:07;14.20;1.00
38938;DHT22;24727;51.974;20.868;2023-08-07T05:22:34;14.20;1.00
38938;DHT22;24727;51.974;20.868;2023-08-07T05:25:00;14.20;1.00
38938;DHT22;24727;51.974;20.868;2023-08-07T05:27:28;14.10;1.00
38938;DHT22;24727;51.974;20.868;2023-08-07T05:29:56;14.20;1.00
38938;DHT22;24727;51.974;20.868;2023-08-07T05:32:22;14.30;1.00
38938;DHT22;24727;51.974;20.868;2023-08-07T05:34:50;14.40;1.00
38938;DHT22;24727;51.974;20.868;2023-08-07T05:37:17;14.50;1.00
38938;DHT22;24727;51.974;20.868;2023-08-07T05:39:43;14.60;1.00
38938;DHT22;24727;51.974;20.868;2023-08-07T05:42:10;14.60;1.00
38938;DHT22;24727;51.974;20.868;2023-08-07T05:44:36;14.60;1.00
38938;DHT22;24727;51.974;20.868;2023-08-07T05:47:02;14.60;1.00
38938;DHT22;24727;51.974;20.868;2023-08-07T05:49:28;14.70;1.00
38938;DHT22;24727;51.974;20.868;2023-08-07T05:51:56;14.70;1.00
38938;DHT22;24727;51.974;20.868;2023-08-07T05:54:22;14.70;1.00
38938;DHT22;24727;51.974;20.868;2023-08-07T05:56:48;14.70;1.00
38938;DHT22;24727;51.974;20.868;2023-08-07T05:59:14;14.70;1.00
38938;DHT22;24727;51.974;20.868;2023-08-07T06:01:41;14.80;1.00
38938;DHT22;24727;51.974;20.868;2023-08-07T06:04:08;14.80;1.00
38938;DHT22;24727;51.974;20.868;2023-08-07T06:06:34;14.70;1.00
38938;DHT22;24727;51.974;20.868;2023-08-07T06:09:02;14.70;1.00
38938;DHT22;24727;51.974;20.868;2023-08-07T06:11:33;14.70;1.00
38938;DHT22;24727;51.974;20.868;2023-08-07T06:14:00;14.80;1.00
38938;DHT22;24727;51.974;20.868;2023-08-07T06:16:27;14.80;1.00
38938;DHT22;24727;51.974;20.868;2023-08-07T06:18:54;15.00;1.00
38938;DHT22;24727;51.974;20.868;2023-08-07T06:21:20;15.30;1.00
38938;DHT22;24727;51.974;20.868;2023-08-07T06:23:46;15.70;1.00
38938;DHT22;24727;51.974;20.868;2023-08-07T06:26:13;16.00;1.00
38938;DHT22;24727;51.974;20.868;2023-08-07T06:28:42;16.10;1.00
38938;DHT22;24727;51.974;20.868;2023-08-07T06:31:10;16.00;1.00
38938;DHT22;24727;51.974;20.868;2023-08-07T06:33:36;15.90;1.00
38938;DHT22;24727;51.974;20.868;2023-08-07T06:36:04;16.00;1.00
38938;DHT22;24727;51.974;20.868;2023-08-07T06:38:30;16.00;1.00
38938;DHT22;24727;51.974;20.868;2023-08-07T06:40:58;16.30;1.00
38938;DHT22;24727;51.974;20.868;2023-08-07T06:43:24;16.20;1.00
38938;DHT22;24727;51.974;20.868;2023-08-07T06:45:51;16.30;1.00
38938;DHT22;24727;51.974;20.868;2023-08-07T06:48:19;16.10;1.00
38938;DHT22;24727;51.974;20.868;2023-08-07T06:50:50;15.80;1.00
38938;DHT22;24727;51.974;20.868;2023-08-07T06:53:16;15.60;1.00
38938;DHT22;24727;51.974;20.868;2023-08-07T06:55:44;15.60;1.00
38938;DHT22;24727;51.974;20.868;2023-08-07T06:58:10;15.70;1.00
38938;DHT22;24727;51.974;20.868;2023-08-07T07:00:36;15.80;1.00
38938;DHT22;24727;51.974;20.868;2023-08-07T07:03:03;15.80;1.00
38938;DHT22;24727;51.974;20.868;2023-08-07T07:05:30;15.70;1.00
38938;DHT22;24727;51.974;20.868;2023-08-07T07:07:57;15.80;1.00
38938;DHT22;24727;51.974;20.868;2023-08-07T07:10:23;15.80;1.00
38938;DHT22;24727;51.974;20.868;2023-08-07T07:12:49;15.70;1.00
38938;DHT22;24727;51.974;20.868;2023-08-07T07:15:15;15.60;1.00
38938;DHT22;24727;51.974;20.868;2023-08-07T07:17:42;15.60;1.00
38938;DHT22;24727;51.974;20.868;2023-08-07T07:20:08;15.50;1.00
38938;DHT22;24727;51.974;20.868;2023-08-07T07:22:37;15.50;1.00
38938;DHT22;24727;51.974;20.868;2023-08-07T07:25:04;15.50;1.00
38938;DHT22;24727;51.974;20.868;2023-08-07T07:27:32;15.60;1.00
38938;DHT22;24727;51.974;20.868;2023-08-07T07:29:59;15.50;1.00
38938;DHT22;24727;51.974;20.868;2023-08-07T07:32:25;15.70;1.00
38938;DHT22;24727;51.974;20.868;2023-08-07T07:34:52;16.00;1.00
38938;DHT22;24727;51.974;20.868;2023-08-07T07:37:18;16.40;1.00
38938;DHT22;24727;51.974;20.868;2023-08-07T07:39:45;16.50;1.00
38938;DHT22;24727;51.974;20.868;2023-08-07T07:42:11;16.30;1.00
38938;DHT22;24727;51.974;20.868;2023-08-07T07:44:36;16.30;1.00
38938;DHT22;24727;51.974;20.868;2023-08-07T07:47:05;16.20;1.00
38938;DHT22;24727;51.974;20.868;2023-08-07T07:49:32;16.20;1.00
38938;DHT22;24727;51.974;20.868;2023-08-07T07:51:59;16.30;1.00
38938;DHT22;24727;51.974;20.868;2023-08-07T07:54:28;16.30;1.00
38938;DHT22;24727;51.974;20.868;2023-08-07T07:57:00;16.20;1.00
38938;DHT22;24727;51.974;20.868;2023-08-07T07:59:26;16.20;1.00
38938;DHT22;24727;51.974;20.868;2023-08-07T08:01:54;16.20;1.00
38938;DHT22;24727;51.974;20.868;2023-08-07T08:04:20;16.30;1.00
38938;DHT22;24727;51.974;20.868;2023-08-07T08:06:46;16.60;1.00
38938;DHT22;24727;51.974;20.868;2023-08-07T08:09:14;16.70;1.00
38938;DHT22;24727;51.974;20.868;2023-08-07T08:11:41;16.60;1.00
38938;DHT22;24727;51.974;20.868;2023-08-07T08:14:07;16.80;1.00
38938;DHT22;24727;51.974;20.868;2023-08-07T08:16:33;16.90;1.00
38938;DHT22;24727;51.974;20.868;2023-08-07T08:19:00;17.00;1.00
38938;DHT22;24727;51.974;20.868;2023-08-07T08:21:27;17.20;1.00
38938;DHT22;24727;51.974;20.868;2023-08-07T08:23:54;17.20;1.00
38938;DHT22;24727;51.974;20.868;2023-08-07T08:26:20;17.30;1.00
38938;DHT22;24727;51.974;20.868;2023-08-07T08:28:46;17.30;1.00
38938;DHT22;24727;51.974;20.868;2023-08-07T08:31:13;17.50;1.00
38938;DHT22;24727;51.974;20.868;2023-08-07T08:33:45;17.50;1.00
38938;DHT22;24727;51.974;20.868;2023-08-07T08:36:11;17.50;1.00
38938;DHT22;24727;51.974;20.868;2023-08-07T08:38:38;17.60;1.00
38938;DHT22;24727;51.974;20.868;2023-08-07T08:41:07;17.50;1.00
38938;DHT22;24727;51.974;20.868;2023-08-07T08:43:35;17.30;1.00
38938;DHT22;24727;51.974;20.868;2023-08-07T08:46:08;17.50;1.00
38938;DHT22;24727;51.974;20.868;2023-08-07T08:48:35;17.90;1.00
38938;DHT22;24727;51.974;20.868;2023-08-07T08:51:04;17.70;1.00
38938;DHT22;24727;51.974;20.868;2023-08-07T08:53:30;17.50;1.00
38938;DHT22;24727;51.974;20.868;2023-08-07T08:55:58;17.70;1.00
38938;DHT22;24727;51.974;20.868;2023-08-07T08:58:26;17.70;1.00
38938;DHT22;24727;51.974;20.868;2023-08-07T09:00:53;17.70;1.00
38938;DHT22;24727;51.974;20.868;2023-08-07T09:03:19;17.90;1.00
38938;DHT22;24727;51.974;20.868;2023-08-07T09:05:47;17.90;1.00
38938;DHT22;24727;51.974;20.868;2023-08-07T09:08:16;17.90;1.00
38938;DHT22;24727;51.974;20.868;2023-08-07T09:10:43;18.00;1.00
38938;DHT22;24727;51.974;20.868;2023-08-07T09:13:12;18.20;1.00
38938;DHT22;24727;51.974;20.868;2023-08-07T09:15:40;18.50;1.00
38938;DHT22;24727;51.974;20.868;2023-08-07T09:18:08;18.60;1.00
38938;DHT22;24727;51.974;20.868;2023-08-07T09:20:35;18.70;1.00
38938;DHT22;24727;51.974;20.868;2023-08-07T09:23:01;18.20;1.00
38938;DHT22;24727;51.974;20.868;2023-08-07T09:25:32;18.00;1.00
38938;DHT22;24727;51.974;20.868;2023-08-07T09:28:01;18.00;1.00
38938;DHT22;24727;51.974;20.868;2023-08-07T09:30:30;18.10;1.00
38938;DHT22;24727;51.974;20.868;2023-08-07T09:33:00;18.20;1.00
38938;DHT22;24727;51.974;20.868;2023-08-07T09:35:28;18.40;1.00
38938;DHT22;24727;51.974;20.868;2023-08-07T09:37:57;18.60;1.00
38938;DHT22;24727;51.974;20.868;2023-08-07T09:40:23;18.80;1.00
38938;DHT22;24727;51.974;20.868;2023-08-07T09:42:55;18.90;1.00
38938;DHT22;24727;51.974;20.868;2023-08-07T09:45:22;18.90;1.00
38938;DHT22;24727;51.974;20.868;2023-08-07T09:48:02;19.00;1.00
38938;DHT22;24727;51.974;20.868;2023-08-07T09:50:30;18.90;1.00
38938;DHT22;24727;51.974;20.868;2023-08-07T09:52:57;19.00;1.00
38938;DHT22;24727;51.974;20.868;2023-08-07T09:55:24;19.00;1.00
38938;DHT22;24727;51.974;20.868;2023-08-07T09:57:53;18.80;1.00
38938;DHT22;24727;51.974;20.868;2023-08-07T10:00:19;18.60;1.00
38938;DHT22;24727;51.974;20.868;2023-08-07T10:02:47;18.30;1.00
38938;DHT22;24727;51.974;20.868;2023-08-07T10:05:15;18.10;1.00
38938;DHT22;24727;51.974;20.868;2023-08-07T10:07:41;18.10;1.00
38938;DHT22;24727;51.974;20.868;2023-08-07T10:10:08;18.00;1.00
38938;DHT22;24727;51.974;20.868;2023-08-07T10:12:36;18.10;1.00
38938;DHT22;24727;51.974;20.868;2023-08-07T10:15:03;18.30;1.00
38938;DHT22;24727;51.974;20.868;2023-08-07T10:17:30;18.60;1.00
38938;DHT22;24727;51.974;20.868;2023-08-07T10:19:57;18.80;1.00
38938;DHT22;24727;51.974;20.868;2023-08-07T10:22:25;18.50;1.00
38938;DHT22;24727;51.974;20.868;2023-08-07T10:24:54;18.30;1.00
38938;DHT22;24727;51.974;20.868;2023-08-07T10:27:23;18.20;1.00
38938;DHT22;24727;51.974;20.868;2023-08-07T10:29:52;18.30;1.00
38938;DHT22;24727;51.974;20.868;2023-08-07T10:32:21;18.20;1.00
38938;DHT22;24727;51.974;20.868;2023-08-07T10:34:52;18.30;1.00
38938;DHT22;24727;51.974;20.868;2023-08-07T10:40:05;18.20;1.00
38938;DHT22;24727;51.974;20.868;2023-08-07T10:42:58;18.20;1.00
38938;DHT22;24727;51.974;20.868;2023-08-07T10:45:34;18.20;1.00
38938;DHT22;24727;51.974;20.868;2023-08-07T10:48:11;18.30;1.00
38938;DHT22;24727;51.974;20.868;2023-08-07T10:50:58;18.50;1.00
38938;DHT22;24727;51.974;20.868;2023-08-07T10:56:04;18.80;1.00
38938;DHT22;24727;51.974;20.868;2023-08-07T10:58:38;18.40;1.00
38938;DHT22;24727;51.974;20.868;2023-08-07T11:01:39;18.20;1.00
38938;DHT22;24727;51.974;20.868;2023-08-07T11:04:08;18.00;1.00
38938;DHT22;24727;51.974;20.868;2023-08-07T11:06:37;18.00;1.00
38938;DHT22;24727;51.974;20.868;2023-08-07T11:09:05;18.00;1.00
38938;DHT22;24727;51.974;20.868;2023-08-07T11:11:40;18.00;1.00
38938;DHT22;24727;51.974;20.868;2023-08-07T11:14:12;18.00;1.00
38938;DHT22;24727;51.974;20.868;2023-08-07T11:16:39;18.20;1.00
38938;DHT22;24727;51.974;20.868;2023-08-07T11:19:06;18.30;1.00
38938;DHT22;24727;51.974;20.868;2023-08-07T11:21:33;18.40;1.00
38938;DHT22;24727;51.974;20.868;2023-08-07T11:24:00;18.40;1.00
38938;DHT22;24727;51.974;20.868;2023-08-07T11:26:28;18.40;1.00
38938;DHT22;24727;51.974;20.868;2023-08-07T11:28:54;18.30;1.00
38938;DHT22;24727;51.974;20.868;2023-08-07T11:31:25;18.10;1.00
38938;DHT22;24727;51.974;20.868;2023-08-07T11:33:55;18.10;1.00
38938;DHT22;24727;51.974;20.868;2023-08-07T11:36:22;18.40;1.00
38938;DHT22;24727;51.974;20.868;2023-08-07T11:38:50;18.30;1.00
38938;DHT22;24727;51.974;20.868;2023-08-07T11:41:17;18.20;1.00
38938;DHT22;24727;51.974;20.868;2023-08-07T11:43:44;18.10;1.00
38938;DHT22;24727;51.974;20.868;2023-08-07T11:46:13;18.30;1.00
38938;DHT22;24727;51.974;20.868;2023-08-07T11:48:42;18.60;1.00
38938;DHT22;24727;51.974;20.868;2023-08-07T11:51:09;19.00;1.00
38938;DHT22;24727;51.974;20.868;2023-08-07T11:53:37;19.10;1.00
38938;DHT22;24727;51.974;20.868;2023-08-07T11:56:07;19.20;1.00
38938;DHT22;24727;51.974;20.868;2023-08-07T11:58:47;19.30;1.00
38938;DHT22;24727;51.974;20.868;2023-08-07T12:01:17;19.40;1.00
38938;DHT22;24727;51.974;20.868;2023-08-07T12:03:56;19.50;1.00
38938;DHT22;24727;51.974;20.868;2023-08-07T12:06:24;19.70;1.00
38938;DHT22;24727;51.974;20.868;2023-08-07T12:08:55;19.80;1.00
38938;DHT22;24727;51.974;20.868;2023-08-07T12:11:22;20.00;1.00
38938;DHT22;24727;51.974;20.868;2023-08-07T12:13:49;20.00;1.00
38938;DHT22;24727;51.974;20.868;2023-08-07T12:16:16;20.10;1.00
38938;DHT22;24727;51.974;20.868;2023-08-07T12:18:48;20.40;1.00
38938;DHT22;24727;51.974;20.868;2023-08-07T12:21:19;20.30;1.00
38938;DHT22;24727;51.974;20.868;2023-08-07T12:23:46;20.20;1.00
38938;DHT22;24727;51.974;20.868;2023-08-07T12:26:14;20.00;1.00
38938;DHT22;24727;51.974;20.868;2023-08-07T12:28:53;20.10;1.00
38938;DHT22;24727;51.974;20.868;2023-08-07T12:31:20;20.20;1.00
38938;DHT22;24727;51.974;20.868;2023-08-07T12:33:46;20.40;1.00
38938;DHT22;24727;51.974;20.868;2023-08-07T12:36:13;20.10;1.00
38938;DHT22;24727;51.974;20.868;2023-08-07T12:38:41;20.20;1.00
38938;DHT22;24727;51.974;20.868;2023-08-07T12:41:08;20.30;1.00
38938;DHT22;24727;51.974;20.868;2023-08-07T12:43:34;20.30;1.00
38938;DHT22;24727;51.974;20.868;2023-08-07T12:46:01;20.00;1.00
38938;DHT22;24727;51.974;20.868;2023-08-07T12:48:28;19.90;1.00
38938;DHT22;24727;51.974;20.868;2023-08-07T12:51:00;19.80;1.00
38938;DHT22;24727;51.974;20.868;2023-08-07T12:53:26;19.90;1.00
38938;DHT22;24727;51.974;20.868;2023-08-07T12:55:52;19.90;1.00
38938;DHT22;24727;51.974;20.868;2023-08-07T12:58:18;19.70;1.00
38938;DHT22;24727;51.974;20.868;2023-08-07T13:00:48;19.50;1.00
38938;DHT22;24727;51.974;20.868;2023-08-07T13:03:15;19.40;1.00
38938;DHT22;24727;51.974;20.868;2023-08-07T13:05:41;19.20;1.00
38938;DHT22;24727;51.974;20.868;2023-08-07T13:08:07;19.20;1.00
38938;DHT22;24727;51.974;20.868;2023-08-07T13:10:33;19.10;1.00
38938;DHT22;24727;51.974;20.868;2023-08-07T13:13:00;19.00;1.00
38938;DHT22;24727;51.974;20.868;2023-08-07T13:15:28;19.00;1.00
38938;DHT22;24727;51.974;20.868;2023-08-07T13:17:54;18.90;1.00
38938;DHT22;24727;51.974;20.868;2023-08-07T13:20:22;18.90;1.00
38938;DHT22;24727;51.974;20.868;2023-08-07T13:22:51;18.80;1.00
38938;DHT22;24727;51.974;20.868;2023-08-07T13:25:16;18.70;1.00
38938;DHT22;24727;51.974;20.868;2023-08-07T13:27:43;18.70;1.00
38938;DHT22;24727;51.974;20.868;2023-08-07T13:30:09;18.60;1.00
38938;DHT22;24727;51.974;20.868;2023-08-07T13:32:36;18.60;1.00
38938;DHT22;24727;51.974;20.868;2023-08-07T13:35:02;18.50;1.00
38938;DHT22;24727;51.974;20.868;2023-08-07T13:37:29;18.60;1.00
38938;DHT22;24727;51.974;20.868;2023-08-07T13:39:55;18.70;1.00
38938;DHT22;24727;51.974;20.868;2023-08-07T13:42:25;18.90;1.00
38938;DHT22;24727;51.974;20.868;2023-08-07T13:44:55;19.20;1.00
38938;DHT22;24727;51.974;20.868;2023-08-07T13:47:24;19.20;1.00
38938;DHT22;24727;51.974;20.868;2023-08-07T13:49:52;19.20;1.00
38938;DHT22;24727;51.974;20.868;2023-08-07T13:52:20;19.20;1.00
38938;DHT22;24727;51.974;20.868;2023-08-07T13:54:47;19.10;1.00
38938;DHT22;24727;51.974;20.868;2023-08-07T13:57:13;18.90;1.00
38938;DHT22;24727;51.974;20.868;2023-08-07T13:59:40;18.80;1.00
38938;DHT22;24727;51.974;20.868;2023-08-07T14:02:07;18.70;1.00
38938;DHT22;24727;51.974;20.868;2023-08-07T14:04:33;18.60;1.00
38938;DHT22;24727;51.974;20.868;2023-08-07T14:07:02;18.50;1.00
38938;DHT22;24727;51.974;20.868;2023-08-07T14:09:29;18.50;1.00
38938;DHT22;24727;51.974;20.868;2023-08-07T14:11:56;18.40;1.00
38938;DHT22;24727;51.974;20.868;2023-08-07T14:14:23;18.40;1.00
38938;DHT22;24727;51.974;20.868;2023-08-07T14:16:50;18.40;1.00
38938;DHT22;24727;51.974;20.868;2023-08-07T14:19:16;18.30;1.00
38938;DHT22;24727;51.974;20.868;2023-08-07T14:21:43;18.20;1.00
38938;DHT22;24727;51.974;20.868;2023-08-07T14:24:09;18.20;1.00
38938;DHT22;24727;51.974;20.868;2023-08-07T14:26:36;18.10;1.00
38938;DHT22;24727;51.974;20.868;2023-08-07T14:29:03;18.10;1.00
38938;DHT22;24727;51.974;20.868;2023-08-07T14:31:30;18.10;1.00
38938;DHT22;24727;51.974;20.868;2023-08-07T14:33:58;18.00;1.00
38938;DHT22;24727;51.974;20.868;2023-08-07T14:36:24;18.00;1.00
38938;DHT22;24727;51.974;20.868;2023-08-07T14:38:50;18.00;1.00
38938;DHT22;24727;51.974;20.868;2023-08-07T14:41:17;18.00;1.00
38938;DHT22;24727;51.974;20.868;2023-08-07T14:43:44;18.00;1.00
38938;DHT22;24727;51.974;20.868;2023-08-07T14:46:11;18.00;1.00
38938;DHT22;24727;51.974;20.868;2023-08-07T14:48:37;18.00;1.00
38938;DHT22;24727;51.974;20.868;2023-08-07T14:51:04;18.10;1.00
38938;DHT22;24727;51.974;20.868;2023-08-07T14:53:31;18.10;1.00
38938;DHT22;24727;51.974;20.868;2023-08-07T14:55:58;18.10;1.00
38938;DHT22;24727;51.974;20.868;2023-08-07T14:58:24;18.20;1.00
38938;DHT22;24727;51.974;20.868;2023-08-07T15:00:54;18.30;1.00
38938;DHT22;24727;51.974;20.868;2023-08-07T15:03:20;18.50;1.00
38938;DHT22;24727;51.974;20.868;2023-08-07T15:05:46;18.80;1.00
38938;DHT22;24727;51.974;20.868;2023-08-07T15:08:12;18.90;1.00
38938;DHT22;24727;51.974;20.868;2023-08-07T15:10:39;19.20;1.00
38938;DHT22;24727;51.974;20.868;2023-08-07T15:13:08;19.20;1.00
38938;DHT22;24727;51.974;20.868;2023-08-07T15:15:34;19.10;1.00
38938;DHT22;24727;51.974;20.868;2023-08-07T15:18:01;19.20;1.00
38938;DHT22;24727;51.974;20.868;2023-08-07T15:20:29;19.10;1.00
38938;DHT22;24727;51.974;20.868;2023-08-07T15:22:58;18.90;1.00
38938;DHT22;24727;51.974;20.868;2023-08-07T15:25:30;18.80;1.00
38938;DHT22;24727;51.974;20.868;2023-08-07T15:27:56;18.70;1.00
38938;DHT22;24727;51.974;20.868;2023-08-07T15:30:27;18.70;1.00
38938;DHT22;24727;51.974;20.868;2023-08-07T15:32:56;18.70;1.00
38938;DHT22;24727;51.974;20.868;2023-08-07T15:35:22;18.70;1.00
38938;DHT22;24727;51.974;20.868;2023-08-07T15:37:48;18.70;1.00
38938;DHT22;24727;51.974;20.868;2023-08-07T15:40:14;18.70;1.00
38938;DHT22;24727;51.974;20.868;2023-08-07T15:42:40;18.60;1.00